sensor_id;sensor_type;location;lat;lon;timestamp;P1;durP1;ratioP1;P2;durP2;ratioP2
66118;SDS011;52912;48.564;9.302;2022-10-13T15:19:39;10.98;;;5.05;;
66118;SDS011;52912;48.564;9.302;2022-10-13T15:22:04;11.93;;;5.30;;
66118;SDS011;52912;48.564;9.302;2022-10-13T15:24:30;13.05;;;5.13;;
66118;SDS011;52912;48.564;9.302;2022-10-13T15:26:55;10.60;;;5.38;;
66118;SDS011;52912;48.564;9.302;2022-10-13T15:29:21;12.32;;;5.32;;
66118;SDS011;52912;48.564;9.302;2022-10-13T15:31:46;8.90;;;4.53;;
66118;SDS011;52912;48.564;9.302;2022-10-13T15:34:12;10.35;;;5.00;;
66118;SDS011;52912;48.564;9.302;2022-10-13T15:36:38;12.65;;;5.75;;
66118;SDS011;52912;48.564;9.302;2022-10-13T15:39:04;14.98;;;5.47;;
66118;SDS011;52912;48.564;9.302;2022-10-13T15:41:30;15.50;;;5.20;;
66118;SDS011;52912;48.564;9.302;2022-10-13T15:43:55;13.15;;;5.53;;
66118;SDS011;52912;48.564;9.302;2022-10-13T15:46:20;10.82;;;4.82;;
66118;SDS011;52912;48.564;9.302;2022-10-13T15:48:46;11.68;;;4.80;;
66118;SDS011;52912;48.564;9.302;2022-10-13T15:51:12;9.32;;;4.63;;
66118;SDS011;52912;48.564;9.302;2022-10-13T15:53:41;11.52;;;4.88;;
66118;SDS011;52912;48.564;9.302;2022-10-13T15:56:07;14.10;;;5.00;;
66118;SDS011;52912;48.564;9.302;2022-10-13T15:58:33;11.43;;;5.07;;
66118;SDS011;52912;48.564;9.302;2022-10-13T16:00:58;11.88;;;6.30;;
66118;SDS011;52912;48.564;9.302;2022-10-13T16:03:24;11.63;;;5.85;;
66118;SDS011;52912;48.564;9.302;2022-10-13T16:05:49;9.85;;;5.13;;
66118;SDS011;52912;48.564;9.302;2022-10-13T16:08:15;10.98;;;5.13;;
66118;SDS011;52912;48.564;9.302;2022-10-13T16:10:41;11.98;;;4.65;;
66118;SDS011;52912;48.564;9.302;2022-10-13T16:13:07;11.50;;;4.53;;
66118;SDS011;52912;48.564;9.302;2022-10-13T16:15:36;9.68;;;4.07;;
66118;SDS011;52912;48.564;9.302;2022-10-13T16:18:02;9.82;;;4.47;;
66118;SDS011;52912;48.564;9.302;2022-10-13T16:20:27;7.00;;;4.43;;
66118;SDS011;52912;48.564;9.302;2022-10-13T16:22:53;12.63;;;4.32;;
66118;SDS011;52912;48.564;9.302;2022-10-13T16:25:18;8.88;;;5.25;;
66118;SDS011;52912;48.564;9.302;2022-10-13T16:27:45;8.30;;;4.15;;
66118;SDS011;52912;48.564;9.302;2022-10-13T16:30:11;10.27;;;4.22;;
66118;SDS011;52912;48.564;9.302;2022-10-13T16:32:37;9.27;;;4.18;;
66118;SDS011;52912;48.564;9.302;2022-10-13T16:35:02;18.33;;;4.68;;
66118;SDS011;52912;48.564;9.302;2022-10-13T16:37:29;15.15;;;4.28;;
66118;SDS011;52912;48.564;9.302;2022-10-13T16:39:54;14.60;;;4.28;;
66118;SDS011;52912;48.564;9.302;2022-10-13T16:42:20;8.95;;;4.00;;
66118;SDS011;52912;48.564;9.302;2022-10-13T16:44:47;8.65;;;4.28;;
66118;SDS011;52912;48.564;9.302;2022-10-13T16:47:12;15.55;;;4.00;;
66118;SDS011;52912;48.564;9.302;2022-10-13T16:49:37;11.70;;;4.13;;
66118;SDS011;52912;48.564;9.302;2022-10-13T16:52:03;10.68;;;4.30;;
66118;SDS011;52912;48.564;9.302;2022-10-13T16:54:29;18.08;;;6.53;;
66118;SDS011;52912;48.564;9.302;2022-10-13T16:56:54;18.58;;;4.78;;
66118;SDS011;52912;48.564;9.302;2022-10-13T16:59:20;13.27;;;4.53;;
66118;SDS011;52912;48.564;9.302;2022-10-13T17:01:46;9.23;;;4.28;;
66118;SDS011;52912;48.564;9.302;2022-10-13T17:04:12;14.60;;;4.60;;
66118;SDS011;52912;48.564;9.302;2022-10-13T17:06:37;13.50;;;5.25;;
66118;SDS011;52912;48.564;9.302;2022-10-13T17:09:03;14.13;;;5.72;;
66118;SDS011;52912;48.564;9.302;2022-10-13T17:11:29;14.65;;;6.57;;
66118;SDS011;52912;48.564;9.302;2022-10-13T17:13:57;16.38;;;6.28;;
66118;SDS011;52912;48.564;9.302;2022-10-13T17:16:23;17.35;;;8.00;;
66118;SDS011;52912;48.564;9.302;2022-10-13T17:18:50;12.30;;;5.60;;
66118;SDS011;52912;48.564;9.302;2022-10-13T17:21:16;10.80;;;5.10;;
66118;SDS011;52912;48.564;9.302;2022-10-13T17:23:41;17.80;;;5.88;;
66118;SDS011;52912;48.564;9.302;2022-10-13T17:26:08;17.27;;;5.30;;
66118;SDS011;52912;48.564;9.302;2022-10-13T17:28:35;17.98;;;5.22;;
66118;SDS011;52912;48.564;9.302;2022-10-13T17:31:02;14.95;;;5.05;;
66118;SDS011;52912;48.564;9.302;2022-10-13T17:33:29;19.48;;;6.03;;
66118;SDS011;52912;48.564;9.302;2022-10-13T17:35:58;13.90;;;5.57;;
66118;SDS011;52912;48.564;9.302;2022-10-13T17:38:24;17.02;;;4.88;;
66118;SDS011;52912;48.564;9.302;2022-10-13T17:40:50;11.27;;;4.88;;
66118;SDS011;52912;48.564;9.302;2022-10-13T17:43:15;10.13;;;5.15;;
66118;SDS011;52912;48.564;9.302;2022-10-13T17:45:41;14.68;;;5.43;;
66118;SDS011;52912;48.564;9.302;2022-10-13T17:48:06;10.00;;;5.15;;
66118;SDS011;52912;48.564;9.302;2022-10-13T17:50:32;15.90;;;6.60;;
66118;SDS011;52912;48.564;9.302;2022-10-13T17:53:00;11.75;;;6.18;;
66118;SDS011;52912;48.564;9.302;2022-10-13T17:55:25;9.20;;;5.70;;
66118;SDS011;52912;48.564;9.302;2022-10-13T17:57:50;11.60;;;5.68;;
66118;SDS011;52912;48.564;9.302;2022-10-13T18:00:16;13.10;;;5.50;;
66118;SDS011;52912;48.564;9.302;2022-10-13T18:02:41;14.95;;;5.70;;
66118;SDS011;52912;48.564;9.302;2022-10-13T18:05:07;20.33;;;5.70;;
66118;SDS011;52912;48.564;9.302;2022-10-13T18:07:33;13.90;;;6.18;;
66118;SDS011;52912;48.564;9.302;2022-10-13T18:09:59;17.25;;;6.40;;
66118;SDS011;52912;48.564;9.302;2022-10-13T18:12:25;12.10;;;6.38;;
66118;SDS011;52912;48.564;9.302;2022-10-13T18:14:50;12.70;;;6.78;;
66118;SDS011;52912;48.564;9.302;2022-10-13T18:17:16;15.38;;;7.25;;
66118;SDS011;52912;48.564;9.302;2022-10-13T18:19:41;14.98;;;5.32;;
66118;SDS011;52912;48.564;9.302;2022-10-13T18:22:07;14.85;;;6.00;;
66118;SDS011;52912;48.564;9.302;2022-10-13T18:24:32;15.10;;;4.85;;
66118;SDS011;52912;48.564;9.302;2022-10-13T18:26:59;23.90;;;6.35;;
66118;SDS011;52912;48.564;9.302;2022-10-13T18:29:24;17.23;;;5.57;;
66118;SDS011;52912;48.564;9.302;2022-10-13T18:31:50;16.77;;;5.53;;
66118;SDS011;52912;48.564;9.302;2022-10-13T18:34:18;12.65;;;5.43;;
66118;SDS011;52912;48.564;9.302;2022-10-13T18:36:44;18.23;;;5.20;;
66118;SDS011;52912;48.564;9.302;2022-10-13T18:39:11;15.93;;;4.72;;
66118;SDS011;52912;48.564;9.302;2022-10-13T18:41:38;13.05;;;4.70;;
66118;SDS011;52912;48.564;9.302;2022-10-13T18:44:05;9.90;;;5.10;;
66118;SDS011;52912;48.564;9.302;2022-10-13T18:46:31;13.73;;;5.85;;
66118;SDS011;52912;48.564;9.302;2022-10-13T18:48:58;16.83;;;7.03;;
66118;SDS011;52912;48.564;9.302;2022-10-13T18:51:24;14.75;;;5.47;;
66118;SDS011;52912;48.564;9.302;2022-10-13T18:53:49;14.60;;;5.38;;
66118;SDS011;52912;48.564;9.302;2022-10-13T18:56:17;14.23;;;5.35;;
66118;SDS011;52912;48.564;9.302;2022-10-13T18:58:43;12.18;;;5.55;;
66118;SDS011;52912;48.564;9.302;2022-10-13T19:01:11;9.65;;;5.13;;
66118;SDS011;52912;48.564;9.302;2022-10-13T19:03:39;11.50;;;4.72;;
66118;SDS011;52912;48.564;9.302;2022-10-13T19:06:06;14.55;;;5.47;;
66118;SDS011;52912;48.564;9.302;2022-10-13T19:08:33;7.87;;;4.83;;
66118;SDS011;52912;48.564;9.302;2022-10-13T19:10:59;11.27;;;5.22;;
66118;SDS011;52912;48.564;9.302;2022-10-13T19:13:25;12.10;;;5.22;;
66118;SDS011;52912;48.564;9.302;2022-10-13T19:15:54;17.25;;;4.97;;
66118;SDS011;52912;48.564;9.302;2022-10-13T19:18:25;12.55;;;4.40;;
66118;SDS011;52912;48.564;9.302;2022-10-13T19:20:50;13.20;;;4.80;;
66118;SDS011;52912;48.564;9.302;2022-10-13T19:23:15;7.93;;;5.13;;
66118;SDS011;52912;48.564;9.302;2022-10-13T19:25:41;10.35;;;5.10;;
66118;SDS011;52912;48.564;9.302;2022-10-13T19:28:07;10.27;;;4.80;;
66118;SDS011;52912;48.564;9.302;2022-10-13T19:30:32;10.85;;;4.85;;
66118;SDS011;52912;48.564;9.302;2022-10-13T19:32:58;14.55;;;5.50;;
66118;SDS011;52912;48.564;9.302;2022-10-13T19:35:25;21.52;;;5.20;;
66118;SDS011;52912;48.564;9.302;2022-10-13T19:37:50;14.88;;;5.90;;
66118;SDS011;52912;48.564;9.302;2022-10-13T19:40:16;10.15;;;4.25;;
66118;SDS011;52912;48.564;9.302;2022-10-13T19:42:41;12.73;;;4.85;;
66118;SDS011;52912;48.564;9.302;2022-10-13T19:45:07;10.15;;;5.60;;
66118;SDS011;52912;48.564;9.302;2022-10-13T19:47:33;12.70;;;7.07;;
66118;SDS011;52912;48.564;9.302;2022-10-13T19:49:59;11.23;;;6.20;;
66118;SDS011;52912;48.564;9.302;2022-10-13T19:52:26;12.65;;;6.53;;
66118;SDS011;52912;48.564;9.302;2022-10-13T19:54:51;11.75;;;6.53;;
66118;SDS011;52912;48.564;9.302;2022-10-13T19:57:17;12.48;;;5.85;;
66118;SDS011;52912;48.564;9.302;2022-10-13T19:59:42;12.73;;;5.85;;
66118;SDS011;52912;48.564;9.302;2022-10-13T20:02:08;15.63;;;5.78;;
66118;SDS011;52912;48.564;9.302;2022-10-13T20:04:33;11.02;;;6.97;;
66118;SDS011;52912;48.564;9.302;2022-10-13T20:06:59;16.85;;;7.90;;
66118;SDS011;52912;48.564;9.302;2022-10-13T20:09:26;9.73;;;5.65;;
66118;SDS011;52912;48.564;9.302;2022-10-13T20:11:51;8.55;;;5.80;;
66118;SDS011;52912;48.564;9.302;2022-10-13T20:14:17;10.98;;;5.03;;
66118;SDS011;52912;48.564;9.302;2022-10-13T20:16:43;15.20;;;5.20;;
66118;SDS011;52912;48.564;9.302;2022-10-13T20:19:09;12.13;;;5.25;;
66118;SDS011;52912;48.564;9.302;2022-10-13T20:21:35;17.02;;;6.68;;
66118;SDS011;52912;48.564;9.302;2022-10-13T20:24:01;13.77;;;6.22;;
66118;SDS011;52912;48.564;9.302;2022-10-13T20:26:28;11.35;;;6.78;;
66118;SDS011;52912;48.564;9.302;2022-10-13T20:28:53;11.07;;;5.10;;
66118;SDS011;52912;48.564;9.302;2022-10-13T20:31:19;11.68;;;5.55;;
66118;SDS011;52912;48.564;9.302;2022-10-13T20:33:46;13.93;;;5.80;;
66118;SDS011;52912;48.564;9.302;2022-10-13T20:36:12;11.25;;;6.53;;
66118;SDS011;52912;48.564;9.302;2022-10-13T20:38:39;11.52;;;5.28;;
66118;SDS011;52912;48.564;9.302;2022-10-13T20:41:05;9.80;;;5.03;;
66118;SDS011;52912;48.564;9.302;2022-10-13T20:43:33;13.55;;;7.10;;
66118;SDS011;52912;48.564;9.302;2022-10-13T20:45:59;14.98;;;7.47;;
66118;SDS011;52912;48.564;9.302;2022-10-13T20:48:26;12.93;;;6.97;;
66118;SDS011;52912;48.564;9.302;2022-10-13T20:50:53;16.27;;;6.93;;
66118;SDS011;52912;48.564;9.302;2022-10-13T20:53:22;15.52;;;6.68;;
66118;SDS011;52912;48.564;9.302;2022-10-13T20:55:53;10.70;;;5.22;;
66118;SDS011;52912;48.564;9.302;2022-10-13T20:58:19;17.80;;;5.55;;
66118;SDS011;52912;48.564;9.302;2022-10-13T21:00:46;19.25;;;5.55;;
66118;SDS011;52912;48.564;9.302;2022-10-13T21:03:11;26.30;;;5.50;;
66118;SDS011;52912;48.564;9.302;2022-10-13T21:05:36;16.95;;;4.88;;
66118;SDS011;52912;48.564;9.302;2022-10-13T21:08:02;20.77;;;5.18;;
66118;SDS011;52912;48.564;9.302;2022-10-13T21:10:27;17.77;;;5.60;;
66118;SDS011;52912;48.564;9.302;2022-10-13T21:12:53;24.60;;;6.05;;
66118;SDS011;52912;48.564;9.302;2022-10-13T21:15:18;11.15;;;5.78;;
66118;SDS011;52912;48.564;9.302;2022-10-13T21:17:45;12.57;;;5.60;;
66118;SDS011;52912;48.564;9.302;2022-10-13T21:20:10;12.00;;;5.38;;
66118;SDS011;52912;48.564;9.302;2022-10-13T21:22:36;10.25;;;5.28;;
66118;SDS011;52912;48.564;9.302;2022-10-13T21:25:01;13.25;;;5.40;;
66118;SDS011;52912;48.564;9.302;2022-10-13T21:27:27;13.95;;;6.05;;
66118;SDS011;52912;48.564;9.302;2022-10-13T21:29:52;11.55;;;5.20;;
66118;SDS011;52912;48.564;9.302;2022-10-13T21:32:18;9.55;;;5.45;;
66118;SDS011;52912;48.564;9.302;2022-10-13T21:34:45;12.00;;;5.45;;
66118;SDS011;52912;48.564;9.302;2022-10-13T21:37:11;8.30;;;5.20;;
66118;SDS011;52912;48.564;9.302;2022-10-13T21:39:36;10.10;;;6.68;;
66118;SDS011;52912;48.564;9.302;2022-10-13T21:42:02;16.27;;;8.02;;
66118;SDS011;52912;48.564;9.302;2022-10-13T21:44:27;13.98;;;8.50;;
66118;SDS011;52912;48.564;9.302;2022-10-13T21:46:53;16.40;;;11.55;;
66118;SDS011;52912;48.564;9.302;2022-10-13T21:49:18;18.80;;;11.10;;
66118;SDS011;52912;48.564;9.302;2022-10-13T21:51:45;13.57;;;6.60;;
66118;SDS011;52912;48.564;9.302;2022-10-13T21:54:11;10.40;;;5.93;;
66118;SDS011;52912;48.564;9.302;2022-10-13T21:56:37;11.40;;;6.15;;
66118;SDS011;52912;48.564;9.302;2022-10-13T21:59:03;9.60;;;4.72;;
66118;SDS011;52912;48.564;9.302;2022-10-13T22:01:29;9.15;;;5.35;;
66118;SDS011;52912;48.564;9.302;2022-10-13T22:03:55;10.38;;;5.90;;
66118;SDS011;52912;48.564;9.302;2022-10-13T22:06:22;12.27;;;6.35;;
66118;SDS011;52912;48.564;9.302;2022-10-13T22:08:50;12.75;;;7.93;;
66118;SDS011;52912;48.564;9.302;2022-10-13T22:11:17;12.20;;;6.03;;
66118;SDS011;52912;48.564;9.302;2022-10-13T22:13:42;11.45;;;5.60;;
66118;SDS011;52912;48.564;9.302;2022-10-13T22:16:09;12.50;;;6.03;;
66118;SDS011;52912;48.564;9.302;2022-10-13T22:18:36;12.88;;;6.30;;
66118;SDS011;52912;48.564;9.302;2022-10-13T22:21:01;13.48;;;6.20;;
66118;SDS011;52912;48.564;9.302;2022-10-13T22:23:27;16.30;;;6.10;;
66118;SDS011;52912;48.564;9.302;2022-10-13T22:25:54;11.27;;;6.53;;
66118;SDS011;52912;48.564;9.302;2022-10-13T22:28:20;16.20;;;6.60;;
66118;SDS011;52912;48.564;9.302;2022-10-13T22:30:46;18.70;;;6.57;;
66118;SDS011;52912;48.564;9.302;2022-10-13T22:33:12;10.98;;;6.40;;
66118;SDS011;52912;48.564;9.302;2022-10-13T22:35:37;11.57;;;6.30;;
66118;SDS011;52912;48.564;9.302;2022-10-13T22:38:03;14.40;;;7.05;;
66118;SDS011;52912;48.564;9.302;2022-10-13T22:40:28;19.05;;;7.20;;
66118;SDS011;52912;48.564;9.302;2022-10-13T22:42:55;14.32;;;6.80;;
66118;SDS011;52912;48.564;9.302;2022-10-13T22:45:21;12.57;;;6.57;;
66118;SDS011;52912;48.564;9.302;2022-10-13T22:47:47;11.90;;;6.88;;
66118;SDS011;52912;48.564;9.302;2022-10-13T22:50:12;13.30;;;6.90;;
66118;SDS011;52912;48.564;9.302;2022-10-13T22:52:38;10.98;;;6.93;;
66118;SDS011;52912;48.564;9.302;2022-10-13T22:55:04;14.52;;;6.47;;
66118;SDS011;52912;48.564;9.302;2022-10-13T22:57:30;10.95;;;6.57;;
66118;SDS011;52912;48.564;9.302;2022-10-13T22:59:56;14.98;;;7.15;;
66118;SDS011;52912;48.564;9.302;2022-10-13T23:02:22;9.73;;;6.25;;
66118;SDS011;52912;48.564;9.302;2022-10-13T23:04:47;12.68;;;7.03;;
66118;SDS011;52912;48.564;9.302;2022-10-13T23:07:13;13.55;;;7.13;;
66118;SDS011;52912;48.564;9.302;2022-10-13T23:09:39;16.27;;;6.88;;
66118;SDS011;52912;48.564;9.302;2022-10-13T23:12:04;9.55;;;6.55;;
66118;SDS011;52912;48.564;9.302;2022-10-13T23:14:30;14.57;;;6.93;;
66118;SDS011;52912;48.564;9.302;2022-10-13T23:16:57;15.35;;;6.63;;
66118;SDS011;52912;48.564;9.302;2022-10-13T23:19:22;15.18;;;6.47;;
66118;SDS011;52912;48.564;9.302;2022-10-13T23:21:47;11.57;;;6.72;;
66118;SDS011;52912;48.564;9.302;2022-10-13T23:24:13;13.38;;;7.60;;
66118;SDS011;52912;48.564;9.302;2022-10-13T23:26:38;13.20;;;8.15;;
66118;SDS011;52912;48.564;9.302;2022-10-13T23:29:04;12.85;;;6.68;;
66118;SDS011;52912;48.564;9.302;2022-10-13T23:31:29;20.25;;;6.57;;
66118;SDS011;52912;48.564;9.302;2022-10-13T23:33:56;8.40;;;6.25;;
66118;SDS011;52912;48.564;9.302;2022-10-13T23:36:23;14.70;;;6.55;;
66118;SDS011;52912;48.564;9.302;2022-10-13T23:38:52;13.43;;;6.60;;
66118;SDS011;52912;48.564;9.302;2022-10-13T23:41:18;13.80;;;6.93;;
66118;SDS011;52912;48.564;9.302;2022-10-13T23:43:43;14.60;;;6.65;;
66118;SDS011;52912;48.564;9.302;2022-10-13T23:46:09;11.00;;;6.22;;
66118;SDS011;52912;48.564;9.302;2022-10-13T23:48:35;12.80;;;6.28;;
66118;SDS011;52912;48.564;9.302;2022-10-13T23:51:05;13.80;;;5.97;;
66118;SDS011;52912;48.564;9.302;2022-10-13T23:53:32;11.00;;;6.60;;
66118;SDS011;52912;48.564;9.302;2022-10-13T23:55:59;13.23;;;6.40;;
66118;SDS011;52912;48.564;9.302;2022-10-13T23:58:25;15.65;;;6.20;;
